Time;durP1;ratioP1;P1;durP2;ratioP2;P2;SDS_P1;SDS_P2;PMS_P1;PMS_P2;Temp;Humidity;BMP_temperature;BMP_pressure;BME280_temperature;BME280_humidity;BME280_pressure;Samples;Min_cycle;Max_cycle;Signal;HPM_P1;HPM_P2
2023/07/09 00:00:49;;;;;;;7.10;4.43;;;25.60;79.10;;;;;;5052784;28;20579;-77
2023/07/09 00:03:15;;;;;;;5.70;4.33;;;25.60;78.50;;;;;;5035223;28;20618;-77
2023/07/09 00:05:42;;;;;;;6.60;3.53;;;25.60;78.80;;;;;;5051512;28;20705;-77
2023/07/09 00:08:30;;;;;;;5.50;3.80;;;25.60;79.50;;;;;;5034764;28;20637;-77
2023/07/09 00:10:57;;;;;;;4.87;4.03;;;25.50;79.90;;;;;;5051266;28;20646;-77
2023/07/09 00:13:25;;;;;;;5.70;3.80;;;25.50;80.50;;;;;;5052419;28;20587;-77
2023/07/09 00:15:52;;;;;;;7.13;4.03;;;25.50;81.80;;;;;;5051353;28;20607;-77
2023/07/09 00:18:18;;;;;;;4.93;3.83;;;25.50;81.70;;;;;;5051394;28;21332;-77
2023/07/09 00:20:44;;;;;;;6.70;4.80;;;25.50;82.60;;;;;;5051274;28;21385;-77
2023/07/09 00:23:13;;;;;;;4.70;3.77;;;25.40;83.00;;;;;;5034772;28;20587;-76
2023/07/09 00:25:43;;;;;;;5.97;4.20;;;25.40;83.80;;;;;;5052362;28;20599;-74
2023/07/09 00:28:20;;;;;;;6.63;3.93;;;25.40;83.70;;;;;;5034369;28;20594;-75
2023/07/09 00:30:47;;;;;;;7.10;4.10;;;25.40;85.10;;;;;;5050849;28;20649;-77
2023/07/09 00:33:14;;;;;;;5.73;4.60;;;25.40;84.50;;;;;;5034278;28;20627;-74
2023/07/09 00:35:50;;;;;;;6.20;4.23;;;25.30;84.80;;;;;;5034233;28;20664;-74
2023/07/09 00:38:21;;;;;;;6.37;4.47;;;25.30;85.40;;;;;;5052447;28;20578;-77
2023/07/09 00:41:04;;;;;;;5.70;5.03;;;25.30;86.70;;;;;;5052275;28;20666;-77
2023/07/09 00:43:37;;;;;;;5.47;4.13;;;25.30;87.80;;;;;;5034334;28;20594;-77
2023/07/09 00:46:26;;;;;;;7.73;4.60;;;25.20;87.00;;;;;;5034360;28;20608;-77
2023/07/09 00:48:58;;;;;;;6.70;4.27;;;25.20;87.60;;;;;;5051978;28;20634;-77
2023/07/09 00:51:25;;;;;;;6.87;4.30;;;25.20;87.60;;;;;;5050711;28;20696;-77
2023/07/09 00:53:55;;;;;;;9.80;4.80;;;25.20;88.30;;;;;;5034493;28;20614;-77
2023/07/09 00:56:38;;;;;;;7.97;4.60;;;25.20;88.70;;;;;;5050513;28;20643;-77
2023/07/09 00:59:06;;;;;;;6.17;3.97;;;25.10;90.20;;;;;;5051207;28;20594;-77
2023/07/09 01:01:33;;;;;;;6.90;3.50;;;25.10;89.30;;;;;;5050110;28;20598;-77
2023/07/09 01:04:03;;;;;;;6.00;3.90;;;25.10;89.70;;;;;;5051035;28;20591;-77
2023/07/09 01:06:52;;;;;;;6.67;4.27;;;25.10;90.00;;;;;;5034261;28;20626;-77
2023/07/09 01:09:22;;;;;;;6.60;3.63;;;25.10;90.20;;;;;;5034074;28;20620;-77
2023/07/09 01:11:48;;;;;;;5.40;4.10;;;25.10;90.20;;;;;;5050272;28;21018;-77
2023/07/09 01:14:19;;;;;;;5.57;4.20;;;25.00;90.40;;;;;;5040697;28;20609;-77
2023/07/09 01:17:07;;;;;;;6.90;4.40;;;25.00;90.80;;;;;;5036747;28;20183;-77
2023/07/09 01:19:45;;;;;;;7.43;4.70;;;25.00;90.90;;;;;;5050467;28;20678;-77
2023/07/09 01:22:14;;;;;;;5.80;3.90;;;24.90;91.40;;;;;;5050490;28;20572;-77
2023/07/09 01:24:53;;;;;;;6.33;4.70;;;24.90;91.40;;;;;;5033421;28;20598;-77
2023/07/09 01:27:26;;;;;;;6.20;4.60;;;24.90;92.40;;;;;;5033482;28;20586;-77
2023/07/09 01:29:52;;;;;;;6.63;4.60;;;24.80;91.90;;;;;;5033426;28;20615;-77
2023/07/09 01:32:19;;;;;;;6.17;3.57;;;24.80;92.10;;;;;;5016830;28;21073;-77
2023/07/09 01:34:47;;;;;;;6.97;4.87;;;24.80;92.40;;;;;;5049968;28;20583;-77
2023/07/09 01:37:35;;;;;;;5.13;4.20;;;24.80;92.60;;;;;;5050033;28;20639;-76
2023/07/09 01:40:05;;;;;;;6.23;4.03;;;24.70;93.50;;;;;;5051153;28;20587;-77
2023/07/09 01:42:32;;;;;;;5.53;4.37;;;24.70;93.30;;;;;;5050010;28;20633;-77
2023/07/09 01:44:57;;;;;;;7.00;4.03;;;24.70;93.50;;;;;;5049561;28;20615;-77
2023/07/09 01:47:24;;;;;;;5.50;4.00;;;24.70;93.60;;;;;;5049779;28;20629;-76
2023/07/09 01:49:54;;;;;;;6.70;4.27;;;24.70;93.80;;;;;;5051113;28;20173;-77
2023/07/09 01:52:22;;;;;;;5.50;3.77;;;24.60;93.90;;;;;;5049437;28;20627;-77
2023/07/09 01:54:49;;;;;;;6.43;4.37;;;24.60;94.10;;;;;;5032772;28;20641;-76
2023/07/09 01:57:32;;;;;;;4.57;4.07;;;24.60;94.30;;;;;;5033006;28;20940;-77
2023/07/09 02:00:08;;;;;;;5.33;4.20;;;24.50;94.80;;;;;;5033104;28;20580;-77
2023/07/09 02:02:48;;;;;;;6.20;3.97;;;24.50;95.20;;;;;;5049737;28;20579;-76
2023/07/09 02:05:17;;;;;;;6.07;4.20;;;24.50;95.40;;;;;;5049602;28;20608;-77
2023/07/09 02:07:43;;;;;;;7.87;5.00;;;24.50;95.50;;;;;;5032645;28;21123;-76
2023/07/09 02:10:09;;;;;;;5.27;3.23;;;24.40;96.00;;;;;;5049273;28;20583;-76
2023/07/09 02:12:36;;;;;;;4.80;3.67;;;24.40;96.00;;;;;;5048517;28;20240;-77
2023/07/09 02:15:02;;;;;;;4.50;3.70;;;24.40;96.10;;;;;;5033042;28;20634;-77
2023/07/09 02:17:28;;;;;;;3.87;3.20;;;24.40;96.50;;;;;;5049163;28;20177;-76
2023/07/09 02:19:53;;;;;;;7.90;4.57;;;24.30;96.40;;;;;;5049758;28;20587;-77
2023/07/09 02:22:19;;;;;;;6.20;3.70;;;24.30;96.50;;;;;;5049915;28;20177;-77
2023/07/09 02:24:45;;;;;;;7.00;4.07;;;24.30;96.50;;;;;;5033528;28;20304;-76
2023/07/09 02:27:15;;;;;;;4.37;3.37;;;24.30;96.60;;;;;;5049614;28;20653;-76
2023/07/09 02:29:40;;;;;;;5.23;3.73;;;24.30;96.70;;;;;;5050253;28;20188;-76
2023/07/09 02:32:08;;;;;;;5.50;3.80;;;24.30;96.70;;;;;;5049253;28;20679;-77
2023/07/09 02:34:35;;;;;;;4.70;3.70;;;24.30;96.90;;;;;;5052622;28;20579;-76
2023/07/09 02:37:01;;;;;;;6.10;3.40;;;24.30;97.10;;;;;;5035540;28;20580;-76
2023/07/09 02:39:27;;;;;;;8.10;3.73;;;24.20;97.20;;;;;;5036227;28;20595;-76
2023/07/09 02:41:53;;;;;;;7.70;4.27;;;24.20;97.30;;;;;;5052344;28;20952;-77
2023/07/09 02:44:19;;;;;;;5.77;3.80;;;24.20;97.40;;;;;;5038429;28;20180;-77
2023/07/09 02:46:45;;;;;;;4.97;3.30;;;24.20;97.50;;;;;;5035576;28;20623;-76
2023/07/09 02:49:13;;;;;;;5.77;3.67;;;24.20;97.80;;;;;;5032451;28;20177;-77
2023/07/09 02:51:39;;;;;;;7.27;3.87;;;24.10;97.80;;;;;;5049300;28;20638;-77
2023/07/09 02:54:05;;;;;;;5.57;4.07;;;24.10;98.10;;;;;;5034215;28;20575;-74
2023/07/09 02:56:32;;;;;;;8.70;3.37;;;24.10;98.20;;;;;;5049407;28;20658;-75
2023/07/09 02:58:58;;;;;;;6.53;4.20;;;24.00;98.30;;;;;;5050716;28;20897;-75
2023/07/09 03:01:26;;;;;;;8.30;3.77;;;24.00;98.40;;;;;;5049199;28;20598;-75
2023/07/09 03:03:57;;;;;;;4.80;3.73;;;24.00;98.50;;;;;;5049659;28;20598;-75
2023/07/09 03:06:24;;;;;;;5.70;3.90;;;24.00;98.80;;;;;;5032845;28;21301;-75
2023/07/09 03:08:51;;;;;;;5.80;3.53;;;24.00;98.80;;;;;;5050180;28;21115;-75
2023/07/09 03:11:17;;;;;;;8.87;4.03;;;24.00;99.10;;;;;;5049362;28;20627;-75
2023/07/09 03:13:44;;;;;;;4.57;3.30;;;24.00;99.30;;;;;;5049152;28;20584;-75
2023/07/09 03:16:10;;;;;;;5.17;3.10;;;24.00;99.40;;;;;;5032908;28;20630;-75
2023/07/09 03:18:35;;;;;;;4.20;3.80;;;23.90;99.50;;;;;;5032315;28;20619;-75
2023/07/09 03:21:01;;;;;;;8.03;3.90;;;23.90;99.60;;;;;;5049384;28;20616;-75
2023/07/09 03:23:27;;;;;;;5.37;3.90;;;23.90;99.80;;;;;;5049149;28;20187;-76
2023/07/09 03:25:53;;;;;;;6.37;3.83;;;23.90;99.90;;;;;;5019650;28;20193;-76
2023/07/09 03:28:18;;;;;;;5.63;3.37;;;23.90;99.90;;;;;;5036068;28;20276;-76
2023/07/09 03:30:46;;;;;;;6.00;3.60;;;23.90;99.90;;;;;;5036284;28;20188;-76
2023/07/09 03:33:14;;;;;;;4.93;3.60;;;23.90;99.90;;;;;;5052647;28;20180;-75
2023/07/09 03:35:40;;;;;;;7.17;3.83;;;23.90;99.90;;;;;;5053769;28;20642;-75
2023/07/09 03:38:07;;;;;;;7.27;4.90;;;23.90;99.90;;;;;;5052614;28;21184;-76
2023/07/09 03:40:33;;;;;;;8.03;4.00;;;23.90;99.90;;;;;;5052717;28;20667;-75
2023/07/09 03:42:59;;;;;;;5.87;4.70;;;23.90;99.90;;;;;;5036037;28;20974;-75
2023/07/09 03:45:25;;;;;;;5.80;4.23;;;23.80;99.90;;;;;;5052689;28;20603;-76
2023/07/09 03:47:51;;;;;;;5.73;3.83;;;23.90;99.90;;;;;;5052576;28;20180;-75
2023/07/09 03:50:17;;;;;;;5.90;4.13;;;23.80;99.90;;;;;;5052100;28;21162;-75
2023/07/09 03:52:43;;;;;;;5.17;3.33;;;23.80;99.90;;;;;;5051999;28;21121;-76
2023/07/09 03:55:09;;;;;;;5.77;4.40;;;23.80;99.90;;;;;;5027356;28;20675;-75
2023/07/09 03:57:35;;;;;;;3.90;3.40;;;23.80;99.90;;;;;;5050080;28;20181;-74
2023/07/09 04:00:04;;;;;;;4.67;3.97;;;23.80;99.90;;;;;;5051874;28;20177;-75
2023/07/09 04:02:43;;;;;;;6.63;3.87;;;23.80;99.90;;;;;;5052603;28;20590;-74
2023/07/09 04:05:09;;;;;;;5.50;3.70;;;23.80;99.90;;;;;;5051566;28;20948;-75
2023/07/09 04:07:35;;;;;;;4.90;3.63;;;23.80;99.90;;;;;;5052445;28;20591;-75
2023/07/09 04:10:01;;;;;;;6.80;3.53;;;23.80;99.90;;;;;;5051944;28;20579;-76
2023/07/09 04:12:27;;;;;;;4.10;3.47;;;23.80;99.90;;;;;;5050659;28;20688;-76
2023/07/09 04:14:53;;;;;;;6.90;3.70;;;23.80;99.90;;;;;;5051846;28;20651;-76
2023/07/09 04:17:19;;;;;;;5.33;3.70;;;23.80;99.90;;;;;;5034379;28;20676;-76
2023/07/09 04:19:44;;;;;;;5.27;3.90;;;23.80;99.90;;;;;;5035007;28;20649;-76
2023/07/09 04:22:13;;;;;;;6.03;3.90;;;23.90;99.90;;;;;;5051025;28;20184;-76
2023/07/09 04:24:39;;;;;;;5.37;4.40;;;23.80;99.90;;;;;;5051725;28;20584;-75
2023/07/09 04:27:05;;;;;;;4.40;4.00;;;23.80;99.90;;;;;;5052065;28;20563;-76
2023/07/09 04:29:33;;;;;;;6.50;4.03;;;23.90;99.90;;;;;;5034778;28;20247;-76
2023/07/09 04:31:59;;;;;;;4.20;2.80;;;23.90;99.90;;;;;;5050738;28;20992;-76
2023/07/09 04:34:25;;;;;;;4.60;3.40;;;23.90;99.90;;;;;;5034479;28;20666;-75
2023/07/09 04:36:51;;;;;;;5.50;3.37;;;24.00;99.90;;;;;;5050212;28;20639;-75
2023/07/09 04:39:16;;;;;;;7.20;3.23;;;24.00;99.90;;;;;;5051078;28;20175;-75
2023/07/09 04:41:42;;;;;;;4.83;3.43;;;24.00;99.90;;;;;;5050882;28;20177;-75
2023/07/09 04:44:08;;;;;;;5.17;3.17;;;24.10;99.90;;;;;;5050915;28;20272;-75
2023/07/09 04:46:34;;;;;;;4.43;3.47;;;24.10;99.90;;;;;;5052162;28;20682;-75
2023/07/09 04:49:00;;;;;;;6.37;3.40;;;24.10;99.90;;;;;;5050482;28;20231;-75
2023/07/09 04:51:27;;;;;;;4.70;3.23;;;24.20;99.90;;;;;;5051235;28;20193;-76
2023/07/09 04:53:53;;;;;;;7.23;3.13;;;24.10;99.90;;;;;;5051829;28;20571;-76
2023/07/09 04:56:19;;;;;;;5.20;3.97;;;24.20;99.90;;;;;;5052327;28;21038;-76
2023/07/09 04:58:44;;;;;;;7.77;3.77;;;24.20;99.90;;;;;;5050229;28;20181;-77
2023/07/09 05:01:10;;;;;;;4.33;2.90;;;24.30;99.90;;;;;;5051826;28;20264;-77
2023/07/09 05:03:36;;;;;;;4.50;3.33;;;24.30;99.90;;;;;;5050343;28;20219;-77
2023/07/09 05:06:03;;;;;;;5.20;3.23;;;24.40;99.90;;;;;;5051855;28;20631;-77
2023/07/09 05:08:29;;;;;;;6.10;3.27;;;24.50;99.90;;;;;;5050057;28;20187;-77
2023/07/09 05:10:57;;;;;;;4.70;3.60;;;24.60;99.90;;;;;;5051225;28;20687;-77
2023/07/09 05:13:24;;;;;;;4.10;2.97;;;24.70;99.90;;;;;;5051588;28;20216;-77
2023/07/09 05:15:50;;;;;;;5.23;2.97;;;24.80;99.90;;;;;;5051338;28;20615;-77
2023/07/09 05:18:17;;;;;;;5.40;3.47;;;24.90;99.90;;;;;;5050201;28;20594;-77
2023/07/09 05:20:43;;;;;;;5.50;3.47;;;24.90;99.90;;;;;;5050366;28;20638;-77
2023/07/09 05:23:10;;;;;;;6.63;2.87;;;25.00;99.90;;;;;;5050237;28;20682;-77
2023/07/09 05:25:36;;;;;;;5.43;3.33;;;25.00;99.90;;;;;;5049864;28;20615;-77
2023/07/09 05:28:03;;;;;;;6.03;3.80;;;25.10;99.90;;;;;;5051159;28;21213;-77
2023/07/09 05:30:29;;;;;;;4.70;3.27;;;25.10;99.90;;;;;;5049827;28;20252;-76
2023/07/09 05:32:57;;;;;;;5.03;2.70;;;25.20;99.90;;;;;;5050945;28;20623;-76
2023/07/09 05:35:25;;;;;;;4.90;2.80;;;25.20;99.90;;;;;;5051204;28;20613;-77
2023/07/09 05:37:52;;;;;;;3.17;2.60;;;25.30;99.90;;;;;;5017038;28;20571;-78
2023/07/09 05:40:17;;;;;;;4.63;2.90;;;25.30;99.90;;;;;;5050246;28;20583;-79
2023/07/09 05:42:43;;;;;;;7.63;3.53;;;25.50;99.90;;;;;;5051830;28;20584;-78
2023/07/09 05:45:09;;;;;;;5.20;2.77;;;25.50;99.90;;;;;;5050292;28;20662;-77
2023/07/09 05:47:35;;;;;;;4.20;2.97;;;25.60;99.90;;;;;;5048103;28;20177;-78
2023/07/09 05:50:01;;;;;;;4.70;3.23;;;25.70;99.90;;;;;;5050769;28;20591;-77
2023/07/09 05:52:29;;;;;;;4.30;3.33;;;25.80;99.90;;;;;;5049010;28;20208;-76
2023/07/09 05:54:56;;;;;;;4.43;3.27;;;25.90;99.90;;;;;;5016819;28;20614;-77
2023/07/09 05:57:22;;;;;;;5.40;3.07;;;26.00;99.90;;;;;;5050154;28;20587;-76
2023/07/09 05:59:48;;;;;;;4.20;2.90;;;26.20;99.90;;;;;;5049845;28;21135;-77
2023/07/09 06:02:16;;;;;;;4.03;3.50;;;26.50;99.90;;;;;;5048953;28;20690;-77
2023/07/09 06:04:42;;;;;;;4.50;3.30;;;27.00;99.90;;;;;;5050811;28;20583;-77
2023/07/09 06:07:09;;;;;;;4.90;3.27;;;27.70;99.90;;;;;;5049991;28;21088;-77
2023/07/09 06:09:36;;;;;;;4.73;3.43;;;28.40;99.90;;;;;;5051129;28;20238;-77
2023/07/09 06:12:05;;;;;;;3.20;2.20;;;29.10;99.90;;;;;;5048874;28;20638;-77
2023/07/09 06:14:31;;;;;;;6.13;3.03;;;29.80;99.50;;;;;;5032977;28;20592;-77
2023/07/09 06:16:58;;;;;;;4.40;3.20;;;30.40;97.50;;;;;;5048627;28;20609;-77
2023/07/09 06:19:24;;;;;;;5.90;3.10;;;30.80;95.50;;;;;;5032454;28;20591;-77
2023/07/09 06:21:50;;;;;;;3.73;2.97;;;31.10;94.10;;;;;;5050261;28;20583;-77
2023/07/09 06:24:15;;;;;;;4.73;2.90;;;31.40;93.60;;;;;;5048839;28;20994;-77
2023/07/09 06:26:41;;;;;;;4.00;3.00;;;31.90;93.40;;;;;;5048735;28;20722;-77
2023/07/09 06:29:07;;;;;;;3.50;2.37;;;32.40;92.10;;;;;;5031995;28;20185;-77
2023/07/09 06:31:33;;;;;;;6.50;3.33;;;32.80;92.20;;;;;;5015553;28;20206;-77
2023/07/09 06:33:59;;;;;;;3.10;2.37;;;33.20;89.30;;;;;;5048778;28;20585;-77
2023/07/09 06:36:25;;;;;;;5.63;2.60;;;33.70;88.60;;;;;;5032312;28;20611;-77
2023/07/09 06:38:50;;;;;;;6.10;2.80;;;34.00;85.80;;;;;;5031280;28;20582;-77
2023/07/09 06:41:16;;;;;;;4.07;3.23;;;34.20;80.70;;;;;;5048887;28;20317;-77
2023/07/09 06:43:43;;;;;;;4.00;2.40;;;34.40;76.80;;;;;;5031270;28;20169;-77
2023/07/09 06:46:11;;;;;;;3.77;2.30;;;34.60;77.50;;;;;;5047162;28;20956;-77
2023/07/09 06:48:37;;;;;;;6.27;2.50;;;35.10;76.30;;;;;;5048201;28;20602;-77
2023/07/09 06:51:03;;;;;;;3.77;2.83;;;35.40;73.00;;;;;;5048224;28;20635;-78
2023/07/09 06:53:29;;;;;;;3.93;2.70;;;35.60;69.60;;;;;;5050237;28;20582;-79
2023/07/09 06:55:58;;;;;;;5.43;2.57;;;35.70;67.20;;;;;;5049267;28;20688;-76
2023/07/09 06:58:27;;;;;;;5.03;2.93;;;36.00;68.00;;;;;;5049829;28;20575;-77
2023/07/09 07:00:56;;;;;;;5.40;2.90;;;36.30;65.90;;;;;;5052642;28;20575;-77
2023/07/09 07:03:23;;;;;;;5.37;2.77;;;36.40;64.40;;;;;;5053619;28;20564;-77
2023/07/09 07:05:50;;;;;;;3.93;2.13;;;36.40;62.40;;;;;;5052272;28;20661;-77
2023/07/09 07:08:19;;;;;;;5.73;2.90;;;36.70;61.90;;;;;;5035984;28;21131;-77
2023/07/09 07:10:46;;;;;;;5.77;3.13;;;36.90;61.10;;;;;;5035611;28;20668;-77
2023/07/09 07:13:12;;;;;;;2.87;2.40;;;37.10;59.60;;;;;;5053872;28;20570;-77
2023/07/09 07:15:38;;;;;;;3.47;2.80;;;37.00;57.70;;;;;;5035956;28;20650;-78
2023/07/09 07:18:05;;;;;;;4.00;2.60;;;36.90;56.30;;;;;;5035741;28;20571;-77
2023/07/09 07:20:31;;;;;;;3.00;2.70;;;36.90;56.40;;;;;;5052273;28;20618;-77
2023/07/09 07:22:57;;;;;;;3.63;2.43;;;36.90;56.00;;;;;;5052128;28;20645;-77
2023/07/09 07:25:24;;;;;;;6.10;2.70;;;37.00;56.30;;;;;;5052120;28;20611;-77
2023/07/09 07:27:49;;;;;;;3.50;2.20;;;37.20;55.60;;;;;;5035280;28;20583;-77
2023/07/09 07:30:16;;;;;;;4.10;3.07;;;37.30;54.80;;;;;;5053462;28;20586;-77
2023/07/09 07:32:48;;;;;;;5.57;3.00;;;37.20;54.50;;;;;;5035018;28;20215;-78
2023/07/09 07:35:14;;;;;;;6.80;3.30;;;37.20;53.30;;;;;;5052392;28;20699;-77
2023/07/09 07:37:43;;;;;;;4.97;2.40;;;37.30;53.80;;;;;;5034804;28;21202;-77
2023/07/09 07:40:10;;;;;;;3.63;2.80;;;37.40;53.40;;;;;;5052420;28;20585;-77
2023/07/09 07:42:36;;;;;;;6.40;2.80;;;37.60;54.50;;;;;;5034815;28;20578;-77
2023/07/09 07:47:33;;;;;;;5.13;2.30;;;38.10;53.00;;;;;;5010809;28;20644;-75
2023/07/09 07:49:59;;;;;;;3.13;2.00;;;38.60;54.00;;;;;;5013268;28;20632;-77
2023/07/09 07:52:25;;;;;;;5.50;3.40;;;38.90;52.80;;;;;;5011914;28;20593;-76
2023/07/09 07:54:52;;;;;;;3.43;2.50;;;39.10;51.90;;;;;;5011646;28;20273;-77
2023/07/09 07:57:18;;;;;;;4.23;3.43;;;39.30;51.50;;;;;;4988095;28;20837;-76
2023/07/09 07:59:46;;;;;;;4.60;2.53;;;39.50;50.40;;;;;;5008985;28;20748;-76
2023/07/09 08:02:13;;;;;;;4.27;2.20;;;39.70;50.10;;;;;;5009623;28;20637;-77
2023/07/09 08:04:40;;;;;;;3.80;2.20;;;39.80;49.60;;;;;;4991876;28;20705;-76
2023/07/09 08:07:10;;;;;;;3.63;2.33;;;40.00;49.80;;;;;;4992725;28;20602;-76
2023/07/09 08:09:36;;;;;;;3.03;2.43;;;40.40;48.90;;;;;;4974676;28;20689;-76
2023/07/09 08:12:08;;;;;;;2.83;2.20;;;40.50;47.60;;;;;;4991852;28;20618;-76
2023/07/09 08:14:35;;;;;;;3.43;2.67;;;40.60;47.20;;;;;;4991946;28;20589;-77
2023/07/09 08:17:01;;;;;;;5.50;3.33;;;40.70;46.70;;;;;;4991673;28;20622;-76
2023/07/09 08:19:26;;;;;;;3.97;2.20;;;40.70;46.00;;;;;;4991994;28;20596;-76
2023/07/09 08:21:52;;;;;;;4.87;2.73;;;40.70;45.80;;;;;;4992022;28;20674;-76
2023/07/09 08:24:18;;;;;;;6.87;2.50;;;40.80;45.60;;;;;;4993120;28;20630;-76
2023/07/09 08:26:43;;;;;;;3.53;2.40;;;40.80;44.90;;;;;;4993625;28;20612;-76
2023/07/09 08:29:09;;;;;;;3.90;2.43;;;40.90;44.70;;;;;;5012261;28;20440;-76
2023/07/09 08:31:35;;;;;;;5.40;2.17;;;41.00;44.50;;;;;;4994400;28;20282;-76
2023/07/09 08:34:01;;;;;;;3.80;2.40;;;40.90;43.90;;;;;;4995248;28;20202;-76
2023/07/09 08:36:27;;;;;;;3.70;2.43;;;41.00;44.20;;;;;;5008243;28;20609;-76
2023/07/09 08:38:53;;;;;;;7.17;2.23;;;41.20;43.80;;;;;;4992872;28;20586;-76
2023/07/09 08:41:57;;;;;;;3.77;2.03;;;41.30;43.50;;;;;;4990988;28;20614;-76
2023/07/09 08:44:51;;;;;;;4.30;2.30;;;41.40;43.70;;;;;;4998307;28;20170;-76
2023/07/09 08:47:20;;;;;;;3.30;2.20;;;41.50;41.40;;;;;;4999164;28;20626;-76
2023/07/09 08:50:08;;;;;;;5.20;2.13;;;41.80;43.20;;;;;;4972874;28;20613;-76
2023/07/09 08:52:37;;;;;;;4.53;2.80;;;41.90;42.30;;;;;;5011843;28;20681;-77
2023/07/09 08:55:28;;;;;;;6.30;1.97;;;42.10;42.70;;;;;;4992337;28;20601;-76
2023/07/09 08:58:09;;;;;;;3.23;2.20;;;42.30;42.60;;;;;;4982050;28;20666;-76
2023/07/09 09:00:52;;;;;;;4.13;2.80;;;42.60;42.30;;;;;;4995209;28;20574;-76
2023/07/09 09:03:21;;;;;;;2.93;2.13;;;42.70;41.60;;;;;;4991028;28;20652;-77
2023/07/09 09:05:49;;;;;;;3.70;2.10;;;42.70;40.90;;;;;;4974789;28;20621;-77
2023/07/09 09:08:39;;;;;;;3.47;1.87;;;42.80;40.90;;;;;;4994730;28;20641;-76
2023/07/09 09:11:21;;;;;;;3.70;2.43;;;43.10;41.20;;;;;;5002677;28;20578;-76
2023/07/09 09:13:50;;;;;;;3.23;1.90;;;43.30;38.30;;;;;;4991337;28;20642;-79
2023/07/09 09:16:25;;;;;;;4.50;2.83;;;43.30;39.30;;;;;;5008517;28;20909;-79
2023/07/09 09:18:55;;;;;;;4.10;2.17;;;43.30;39.40;;;;;;4999392;28;20594;-78
2023/07/09 09:21:30;;;;;;;3.37;2.50;;;43.30;38.80;;;;;;4990444;28;20653;-78
2023/07/09 09:24:01;;;;;;;3.60;2.17;;;43.30;38.80;;;;;;4992075;28;20585;-78
2023/07/09 09:26:32;;;;;;;6.17;2.37;;;43.50;38.90;;;;;;4991923;28;20652;-79
2023/07/09 09:28:57;;;;;;;4.60;2.10;;;43.70;38.60;;;;;;4991155;28;20590;-79
2023/07/09 09:31:26;;;;;;;5.63;2.83;;;43.70;38.40;;;;;;4991749;28;20582;-78
2023/07/09 09:33:52;;;;;;;4.57;2.80;;;43.80;38.20;;;;;;4991356;28;20191;-78
2023/07/09 09:36:23;;;;;;;4.60;2.70;;;43.80;38.40;;;;;;4991868;28;20635;-78
2023/07/09 09:38:53;;;;;;;3.23;2.10;;;44.00;38.10;;;;;;4991399;28;20946;-78
2023/07/09 09:41:24;;;;;;;4.67;3.10;;;44.00;37.70;;;;;;4986494;28;20630;-78
2023/07/09 09:43:52;;;;;;;3.13;2.10;;;44.00;37.20;;;;;;4987208;28;20602;-78
2023/07/09 09:46:23;;;;;;;4.93;2.70;;;43.80;37.30;;;;;;4972257;28;20645;-78
2023/07/09 09:48:52;;;;;;;3.50;2.07;;;43.80;37.90;;;;;;4986388;28;20668;-78
2023/07/09 09:51:19;;;;;;;3.17;2.00;;;44.10;38.00;;;;;;4987556;28;20598;-78
2023/07/09 09:53:52;;;;;;;3.40;2.80;;;44.40;37.80;;;;;;4991258;28;20582;-78
2023/07/09 09:56:24;;;;;;;2.73;2.20;;;44.60;36.80;;;;;;4991810;28;20618;-78
2023/07/09 09:58:54;;;;;;;4.53;2.73;;;44.70;37.20;;;;;;4990065;28;20594;-78
2023/07/09 10:01:25;;;;;;;3.73;2.50;;;44.90;36.80;;;;;;4991245;28;20638;-78
2023/07/09 10:03:54;;;;;;;5.73;2.70;;;44.90;36.10;;;;;;4989264;28;20670;-78
2023/07/09 10:06:31;;;;;;;3.40;2.00;;;44.70;36.10;;;;;;4988785;28;20615;-78
2023/07/09 10:09:20;;;;;;;3.00;2.50;;;44.70;35.80;;;;;;4991125;28;20655;-78
2023/07/09 10:12:10;;;;;;;4.50;2.73;;;44.70;36.00;;;;;;4970101;28;20605;-78
2023/07/09 10:14:58;;;;;;;3.20;2.40;;;45.00;36.80;;;;;;4990027;28;20584;-78
2023/07/09 10:17:40;;;;;;;3.60;2.40;;;45.10;36.30;;;;;;4971985;28;20685;-78
2023/07/09 10:20:09;;;;;;;2.87;2.30;;;44.90;34.50;;;;;;5007843;28;20583;-80
2023/07/09 10:22:40;;;;;;;6.17;3.00;;;44.70;35.50;;;;;;4990621;28;20658;-79
2023/07/09 10:25:14;;;;;;;3.97;2.20;;;44.90;35.50;;;;;;4991536;28;20681;-77
2023/07/09 10:28:04;;;;;;;7.00;2.70;;;44.80;35.00;;;;;;5003231;28;21099;-78
2023/07/09 10:31:14;;;;;;;3.57;2.40;;;44.50;34.60;;;;;;4972619;28;20610;-78
2023/07/09 10:33:40;;;;;;;3.20;1.63;;;44.20;34.90;;;;;;4988730;28;20587;-78
2023/07/09 10:36:24;;;;;;;4.30;2.27;;;44.10;35.30;;;;;;4989659;28;20708;-78
2023/07/09 10:38:58;;;;;;;3.77;2.50;;;44.30;36.30;;;;;;4990873;28;20237;-78
2023/07/09 10:41:25;;;;;;;4.50;2.57;;;44.70;36.80;;;;;;4989567;28;20637;-78
2023/07/09 10:43:54;;;;;;;3.70;2.57;;;45.00;35.60;;;;;;4989715;28;20598;-77
2023/07/09 10:46:25;;;;;;;3.70;2.30;;;45.10;35.70;;;;;;4989001;28;20712;-76
2023/07/09 10:48:52;;;;;;;4.00;2.70;;;45.30;35.00;;;;;;4989547;28;20593;-78
2023/07/09 10:52:06;;;;;;;3.60;2.40;;;45.30;34.70;;;;;;4988985;28;20665;-77
2023/07/09 10:54:56;;;;;;;4.33;2.03;;;45.50;34.80;;;;;;4933837;29;20747;-77
2023/07/09 10:57:28;;;;;;;4.63;1.90;;;45.50;33.30;;;;;;4989709;28;20704;-77
2023/07/09 10:59:55;;;;;;;2.50;2.10;;;45.40;33.50;;;;;;4993041;28;20613;-77
2023/07/09 11:02:25;;;;;;;5.83;2.50;;;45.30;33.40;;;;;;4989029;28;20636;-77
2023/07/09 11:05:07;;;;;;;3.40;2.10;;;45.30;33.00;;;;;;4991073;28;20586;-78
2023/07/09 11:07:48;;;;;;;3.87;2.00;;;45.10;32.90;;;;;;4990663;28;20911;-78
2023/07/09 11:10:53;;;;;;;3.20;2.60;;;45.10;33.00;;;;;;4990961;28;20613;-77
2023/07/09 11:13:32;;;;;;;3.00;2.60;;;45.10;33.10;;;;;;4925046;28;20674;-77
2023/07/09 11:16:00;;;;;;;3.10;1.90;;;45.10;33.30;;;;;;4989587;28;20721;-77
2023/07/09 11:18:31;;;;;;;2.90;2.10;;;45.30;33.20;;;;;;4990285;28;20582;-77
2023/07/09 11:21:05;;;;;;;3.53;1.90;;;45.30;32.20;;;;;;4990656;28;20602;-76
2023/07/09 11:23:49;;;;;;;6.33;2.77;;;45.30;32.30;;;;;;4989496;28;20582;-77
2023/07/09 11:26:22;;;;;;;3.83;2.13;;;45.40;31.90;;;;;;5006043;28;20614;-77
2023/07/09 11:29:14;;;;;;;5.27;2.27;;;45.50;31.90;;;;;;4989700;28;21164;-77
2023/07/09 11:31:44;;;;;;;4.60;2.40;;;45.50;32.70;;;;;;4990439;28;20644;-78
2023/07/09 11:34:19;;;;;;;4.20;2.63;;;45.50;31.80;;;;;;4991343;28;20609;-77
2023/07/09 11:36:59;;;;;;;5.97;2.40;;;45.50;31.30;;;;;;5002825;28;20732;-77
2023/07/09 11:39:45;;;;;;;3.13;1.73;;;45.10;30.30;;;;;;4992790;28;20605;-77
2023/07/09 11:42:28;;;;;;;4.07;2.30;;;44.80;31.40;;;;;;4989181;28;20624;-77
2023/07/09 11:45:00;;;;;;;3.90;1.93;;;44.70;31.30;;;;;;4996594;28;20586;-76
2023/07/09 11:48:05;;;;;;;3.23;2.20;;;44.50;31.50;;;;;;5011392;28;20629;-76
2023/07/09 11:50:51;;;;;;;3.17;1.70;;;44.20;31.40;;;;;;4984765;28;20593;-76
2023/07/09 11:53:44;;;;;;;4.00;2.20;;;43.80;31.40;;;;;;4994155;28;21008;-77
2023/07/09 11:56:10;;;;;;;3.30;2.00;;;43.50;31.60;;;;;;4991271;28;20716;-77
2023/07/09 11:58:36;;;;;;;3.47;2.13;;;43.20;31.60;;;;;;4993781;28;20581;-78
2023/07/09 12:01:03;;;;;;;2.73;2.03;;;42.80;31.70;;;;;;4997331;28;20585;-78
2023/07/09 12:03:35;;;;;;;3.20;2.20;;;42.60;31.50;;;;;;4994209;28;20191;-78
2023/07/09 12:06:04;;;;;;;5.30;2.60;;;42.30;30.50;;;;;;4985076;28;20688;-78
2023/07/09 12:08:39;;;;;;;4.70;1.70;;;42.00;30.70;;;;;;4992284;28;20579;-78
2023/07/09 12:11:06;;;;;;;3.20;1.87;;;42.00;31.20;;;;;;4992166;28;21001;-77
2023/07/09 12:13:39;;;;;;;3.33;2.17;;;42.00;30.70;;;;;;4991914;28;20593;-78
2023/07/09 12:16:24;;;;;;;3.30;1.87;;;42.00;30.50;;;;;;4978847;28;20757;-78
2023/07/09 12:18:49;;;;;;;4.57;2.27;;;42.00;30.40;;;;;;4984146;28;20643;-79
2023/07/09 12:21:15;;;;;;;3.90;2.07;;;42.30;30.90;;;;;;4977572;28;20668;-79
2023/07/09 12:23:41;;;;;;;3.90;2.10;;;42.50;30.80;;;;;;4997791;28;20171;-79
2023/07/09 12:26:13;;;;;;;2.67;1.80;;;42.70;30.90;;;;;;5003475;28;21378;-79
2023/07/09 12:28:39;;;;;;;3.20;1.50;;;43.00;30.70;;;;;;5012148;28;20174;-79
2023/07/09 12:31:11;;;;;;;3.70;1.93;;;43.30;30.90;;;;;;4997323;28;20597;-79
2023/07/09 12:33:36;;;;;;;2.37;1.87;;;43.30;29.90;;;;;;5012327;28;20178;-78
2023/07/09 12:36:05;;;;;;;2.27;1.87;;;43.20;29.60;;;;;;5012431;28;20632;-79
2023/07/09 12:38:42;;;;;;;3.27;1.90;;;43.00;29.30;;;;;;5002493;28;20214;-77
2023/07/09 12:41:36;;;;;;;3.73;1.67;;;42.50;29.00;;;;;;4991259;28;20754;-78
2023/07/09 12:44:03;;;;;;;3.20;1.77;;;42.10;29.00;;;;;;5009712;28;20618;-77
2023/07/09 12:46:29;;;;;;;2.60;1.70;;;41.60;29.10;;;;;;5007448;28;20642;-77
2023/07/09 12:48:55;;;;;;;2.77;1.60;;;41.40;29.50;;;;;;4980201;28;20612;-78
2023/07/09 12:51:25;;;;;;;3.43;2.00;;;41.10;29.60;;;;;;5011514;28;20585;-79
2023/07/09 12:54:12;;;;;;;4.10;1.50;;;40.90;29.80;;;;;;5000732;28;20245;-78
2023/07/09 12:56:38;;;;;;;3.00;2.10;;;40.60;29.90;;;;;;5008206;28;20716;-79
2023/07/09 12:59:20;;;;;;;2.40;1.80;;;40.40;30.00;;;;;;5007424;28;21027;-78
2023/07/09 13:01:56;;;;;;;4.77;2.77;;;40.20;30.20;;;;;;4991938;28;20330;-77
2023/07/09 13:04:38;;;;;;;6.53;2.87;;;40.10;30.70;;;;;;4975155;28;20604;-77
2023/07/09 13:07:04;;;;;;;3.47;1.83;;;39.80;31.00;;;;;;4990289;28;20630;-77